Time;durP1;ratioP1;P1;durP2;ratioP2;P2;SDS_P1;SDS_P2;PMS_P1;PMS_P2;Temp;Humidity;BMP_temperature;BMP_pressure;BME280_temperature;BME280_humidity;BME280_pressure;Samples;Min_cycle;Max_cycle;Signal;HPM_P1;HPM_P2
2023/07/18 00:01:15;;;;;;;70.63;4.83;;;18.90;1.00;;;;;;5084129;28;20167;-81
2023/07/18 00:03:41;;;;;;;67.60;4.70;;;18.90;1.00;;;;;;5105300;28;20449;-82
2023/07/18 00:06:08;;;;;;;67.50;5.27;;;18.80;1.00;;;;;;5105077;28;20393;-82
2023/07/18 00:08:33;;;;;;;70.27;4.77;;;18.80;1.00;;;;;;5105130;28;20417;-83
2023/07/18 00:10:59;;;;;;;67.50;5.30;;;18.80;1.00;;;;;;5105080;28;20427;-83
2023/07/18 00:13:25;;;;;;;67.30;5.37;;;18.80;1.00;;;;;;5105695;28;20159;-83
2023/07/18 00:15:51;;;;;;;69.37;5.77;;;18.80;1.00;;;;;;5087771;28;20500;-82
2023/07/18 00:18:16;;;;;;;73.70;6.33;;;18.80;1.00;;;;;;5104262;28;20243;-83
2023/07/18 00:20:42;;;;;;;69.20;5.57;;;18.70;1.00;;;;;;5104875;28;20187;-83
2023/07/18 00:23:10;;;;;;;67.50;5.50;;;18.70;1.00;;;;;;5105698;28;20237;-83
2023/07/18 00:25:36;;;;;;;67.70;5.97;;;18.70;1.00;;;;;;5104795;28;20157;-82
2023/07/18 00:28:03;;;;;;;70.87;6.97;;;18.70;1.00;;;;;;5105022;28;20425;-82
2023/07/18 00:30:29;;;;;;;68.53;7.87;;;18.60;1.00;;;;;;5088108;28;20484;-82
2023/07/18 00:32:56;;;;;;;69.87;8.13;;;18.50;1.00;;;;;;5086621;28;20429;-82
2023/07/18 00:35:23;;;;;;;67.53;7.87;;;18.50;1.00;;;;;;5105490;28;20405;-82
2023/07/18 00:37:49;;;;;;;69.87;8.77;;;18.60;1.00;;;;;;5103327;28;20412;-81
2023/07/18 00:40:15;;;;;;;68.83;8.30;;;18.60;1.00;;;;;;5103618;28;20406;-82
2023/07/18 00:42:43;;;;;;;71.10;8.80;;;18.60;1.00;;;;;;5103765;28;20498;-82
2023/07/18 00:45:09;;;;;;;73.27;10.43;;;18.50;3.70;;;;;;5086798;28;20409;-82
2023/07/18 00:47:40;;;;;;;71.37;9.70;;;18.50;3.30;;;;;;5105086;28;20429;-82
2023/07/18 00:50:11;;;;;;;71.60;11.47;;;18.50;3.80;;;;;;5086943;28;20497;-83
2023/07/18 00:52:41;;;;;;;69.70;10.80;;;18.50;6.20;;;;;;5085320;28;20431;-82
2023/07/18 00:55:11;;;;;;;70.87;9.13;;;18.50;5.80;;;;;;5103596;28;20473;-83
2023/07/18 00:57:41;;;;;;;71.73;10.73;;;18.60;5.00;;;;;;5105625;28;20488;-82
2023/07/18 01:00:11;;;;;;;70.27;8.90;;;18.50;4.50;;;;;;5086367;28;20405;-82
2023/07/18 01:02:38;;;;;;;73.53;9.60;;;18.50;5.20;;;;;;5102730;28;20450;-83
2023/07/18 01:05:04;;;;;;;72.80;12.70;;;18.50;6.20;;;;;;5086048;28;20421;-82
2023/07/18 01:07:30;;;;;;;71.87;12.20;;;18.40;10.60;;;;;;5084779;28;20421;-82
2023/07/18 01:10:24;;;;;;;70.80;13.63;;;18.20;12.50;;;;;;5101787;28;20402;-83
2023/07/18 01:12:58;;;;;;;73.77;12.83;;;18.30;13.70;;;;;;5083838;28;20780;-82
2023/07/18 01:15:29;;;;;;;75.33;13.73;;;18.30;12.40;;;;;;5084529;28;20983;-82
2023/07/18 01:17:55;;;;;;;73.40;18.53;;;18.20;15.60;;;;;;5102515;28;20436;-82
2023/07/18 01:20:23;;;;;;;77.27;22.33;;;18.20;18.70;;;;;;5102568;28;20421;-82
2023/07/18 01:22:51;;;;;;;73.53;18.07;;;18.00;23.70;;;;;;5083917;28;20192;-82
2023/07/18 01:25:17;;;;;;;74.13;18.80;;;18.00;24.70;;;;;;5083650;28;20401;-82
2023/07/18 01:27:48;;;;;;;72.00;20.23;;;18.00;21.80;;;;;;5101858;28;20472;-81
2023/07/18 01:30:17;;;;;;;77.90;19.83;;;18.00;21.50;;;;;;5104319;28;20375;-83
2023/07/18 01:32:42;;;;;;;76.97;18.20;;;18.00;20.90;;;;;;5102932;28;20912;-82
2023/07/18 01:35:09;;;;;;;72.70;18.03;;;18.00;20.90;;;;;;5102460;28;20417;-82
2023/07/18 01:37:38;;;;;;;70.37;14.30;;;18.20;18.60;;;;;;5101441;28;20416;-82
2023/07/18 01:40:08;;;;;;;75.70;17.37;;;18.20;17.50;;;;;;5101480;28;20172;-82
2023/07/18 01:42:34;;;;;;;77.67;18.77;;;18.00;20.20;;;;;;5085993;28;20797;-82
2023/07/18 01:45:02;;;;;;;75.23;20.90;;;18.00;19.80;;;;;;5083703;28;20464;-82
2023/07/18 01:47:29;;;;;;;73.90;15.77;;;18.00;18.90;;;;;;5102066;28;20398;-82
2023/07/18 01:49:54;;;;;;;71.60;15.47;;;18.10;17.90;;;;;;5101762;28;20803;-81
2023/07/18 01:52:20;;;;;;;72.57;17.60;;;18.00;18.30;;;;;;5102166;28;20408;-81
2023/07/18 01:54:46;;;;;;;75.50;16.40;;;18.00;16.80;;;;;;5103180;28;20174;-82
2023/07/18 01:57:11;;;;;;;73.20;17.97;;;18.00;18.40;;;;;;5101832;28;20172;-82
2023/07/18 01:59:38;;;;;;;69.67;13.33;;;18.00;17.40;;;;;;5101584;28;20188;-82
2023/07/18 02:02:06;;;;;;;72.77;16.33;;;18.00;15.70;;;;;;5101355;28;20281;-83
2023/07/18 02:04:32;;;;;;;70.57;15.30;;;18.00;16.00;;;;;;5101906;28;20410;-81
2023/07/18 02:06:57;;;;;;;75.27;18.77;;;17.90;19.50;;;;;;5102715;28;20429;-82
2023/07/18 02:09:23;;;;;;;73.70;20.40;;;17.70;23.80;;;;;;5101871;28;20421;-82
2023/07/18 02:11:49;;;;;;;77.27;24.77;;;17.50;33.50;;;;;;5101862;28;20167;-82
2023/07/18 02:14:20;;;;;;;77.00;31.50;;;17.40;36.90;;;;;;5102886;28;20178;-83
2023/07/18 02:16:45;;;;;;;74.50;24.77;;;17.40;33.00;;;;;;5103825;28;20389;-83
2023/07/18 02:19:11;;;;;;;78.07;22.77;;;17.60;28.80;;;;;;5084317;28;20539;-82
2023/07/18 02:21:36;;;;;;;73.37;19.27;;;17.60;26.60;;;;;;5084959;28;20191;-82
2023/07/18 02:24:03;;;;;;;74.17;19.17;;;17.70;23.50;;;;;;5101394;28;20210;-82
2023/07/18 02:26:29;;;;;;;73.77;20.10;;;17.70;22.90;;;;;;5083614;28;20178;-82
2023/07/18 02:28:55;;;;;;;73.87;20.67;;;17.60;24.10;;;;;;5101311;28;20417;-82
2023/07/18 02:31:21;;;;;;;75.60;20.87;;;17.50;27.80;;;;;;5103660;28;20469;-82
2023/07/18 02:33:47;;;;;;;75.47;26.77;;;17.30;33.40;;;;;;5101316;28;20463;-81
2023/07/18 02:36:13;;;;;;;78.60;32.10;;;17.30;35.30;;;;;;5101890;28;20500;-82
2023/07/18 02:38:38;;;;;;;78.50;35.10;;;17.30;33.20;;;;;;5100240;28;20190;-81
2023/07/18 02:41:04;;;;;;;75.40;24.90;;;17.40;30.70;;;;;;5101088;28;20171;-82
2023/07/18 02:43:30;;;;;;;72.90;18.77;;;17.50;27.20;;;;;;5100116;28;20191;-82
2023/07/18 02:45:56;;;;;;;77.47;24.73;;;17.50;25.70;;;;;;5100094;28;20534;-81
2023/07/18 02:48:21;;;;;;;76.30;23.83;;;17.50;25.10;;;;;;5099714;28;20183;-82
2023/07/18 02:50:51;;;;;;;75.23;19.03;;;17.50;24.70;;;;;;5099599;28;20242;-82
2023/07/18 02:53:16;;;;;;;75.00;21.67;;;17.50;24.10;;;;;;5099729;28;20584;-82
2023/07/18 02:55:42;;;;;;;78.30;26.00;;;17.50;23.90;;;;;;5099197;28;20402;-81
2023/07/18 02:58:08;;;;;;;73.70;20.37;;;17.50;24.60;;;;;;5099017;28;20187;-82
2023/07/18 03:00:34;;;;;;;72.80;19.20;;;17.40;25.50;;;;;;5100533;28;20167;-81
2023/07/18 03:03:00;;;;;;;76.70;23.97;;;17.40;27.30;;;;;;5099587;28;20252;-82
2023/07/18 03:05:27;;;;;;;75.57;23.43;;;17.30;28.90;;;;;;5099711;28;20164;-81
2023/07/18 03:07:54;;;;;;;75.83;20.93;;;17.30;27.10;;;;;;5098354;28;20425;-82
2023/07/18 03:10:21;;;;;;;75.93;23.53;;;17.30;26.80;;;;;;5081472;28;20409;-81
2023/07/18 03:12:46;;;;;;;77.40;29.10;;;17.30;26.50;;;;;;5100419;28;20927;-82
2023/07/18 03:15:13;;;;;;;74.63;23.43;;;17.30;27.10;;;;;;5081486;28;20417;-82
2023/07/18 03:17:39;;;;;;;77.13;24.20;;;17.30;25.70;;;;;;5099877;28;20168;-82
2023/07/18 03:20:13;;;;;;;74.00;19.13;;;17.20;26.80;;;;;;5100439;28;20432;-82
2023/07/18 03:22:39;;;;;;;74.27;23.60;;;17.20;26.00;;;;;;5082069;28;20197;-81
2023/07/18 03:25:06;;;;;;;82.67;22.30;;;17.20;24.40;;;;;;5100111;28;20409;-82
2023/07/18 03:27:31;;;;;;;75.80;23.07;;;17.20;23.90;;;;;;5081820;28;20182;-81
2023/07/18 03:29:57;;;;;;;76.10;27.00;;;17.20;24.40;;;;;;5098796;28;20427;-81
2023/07/18 03:32:23;;;;;;;76.43;25.13;;;17.10;25.50;;;;;;5097902;28;20171;-81
2023/07/18 03:34:48;;;;;;;75.13;25.33;;;17.20;24.70;;;;;;5098744;28;20189;-81
2023/07/18 03:37:14;;;;;;;74.67;24.63;;;17.10;26.80;;;;;;5080620;28;20428;-81
2023/07/18 03:39:40;;;;;;;79.33;28.60;;;17.10;25.60;;;;;;5081019;28;20585;-81
2023/07/18 03:42:06;;;;;;;73.83;23.23;;;17.10;25.20;;;;;;5099607;28;20162;-82
2023/07/18 03:44:32;;;;;;;75.93;25.90;;;17.10;24.10;;;;;;5098567;28;20402;-81
2023/07/18 03:46:57;;;;;;;73.50;22.73;;;17.10;23.60;;;;;;5099372;28;20837;-82
2023/07/18 03:49:23;;;;;;;77.53;25.17;;;17.00;25.00;;;;;;5098996;28;20680;-82
2023/07/18 03:51:49;;;;;;;79.20;24.60;;;17.00;26.60;;;;;;5080464;28;20573;-82
2023/07/18 03:54:15;;;;;;;75.47;24.57;;;16.90;28.90;;;;;;5099073;28;20536;-82
2023/07/18 03:56:41;;;;;;;78.10;33.73;;;16.80;31.70;;;;;;5099483;28;20187;-82
2023/07/18 03:59:06;;;;;;;83.20;44.03;;;16.60;38.70;;;;;;5082489;28;20433;-82
2023/07/18 04:01:32;;;;;;;81.00;40.97;;;16.60;41.20;;;;;;5081572;28;20179;-82
2023/07/18 04:03:58;;;;;;;79.13;40.00;;;16.70;39.60;;;;;;5081735;28;20199;-82
2023/07/18 04:06:23;;;;;;;77.03;33.17;;;16.80;36.90;;;;;;5099366;28;20160;-82
2023/07/18 04:08:49;;;;;;;78.10;30.67;;;16.80;32.90;;;;;;5100188;28;20194;-81
2023/07/18 04:11:15;;;;;;;81.93;35.37;;;16.80;32.40;;;;;;5098313;28;20254;-83
2023/07/18 04:13:41;;;;;;;78.97;30.37;;;16.80;32.00;;;;;;5099354;28;20171;-82
2023/07/18 04:16:07;;;;;;;77.83;33.07;;;16.80;33.60;;;;;;5098915;28;20168;-82
2023/07/18 04:18:33;;;;;;;78.70;33.23;;;16.80;32.00;;;;;;5098966;28;20425;-82
2023/07/18 04:21:01;;;;;;;78.77;32.67;;;16.90;31.10;;;;;;5082183;28;20453;-82
2023/07/18 04:23:28;;;;;;;76.60;29.87;;;16.90;29.00;;;;;;5100703;28;20985;-82
2023/07/18 04:26:01;;;;;;;78.47;27.90;;;16.90;30.30;;;;;;5082438;28;20923;-81
2023/07/18 04:28:28;;;;;;;80.67;36.27;;;16.90;28.90;;;;;;5083750;28;20425;-82
2023/07/18 04:30:54;;;;;;;77.47;31.53;;;16.90;30.50;;;;;;5101489;28;20934;-83
2023/07/18 04:33:20;;;;;;;83.03;35.07;;;16.80;33.20;;;;;;5102790;28;20405;-84
2023/07/18 04:35:46;;;;;;;81.60;38.77;;;16.70;38.10;;;;;;5081100;28;20416;-82
2023/07/18 04:38:15;;;;;;;85.20;45.70;;;16.50;43.80;;;;;;5099300;28;20874;-82
2023/07/18 04:40:41;;;;;;;82.20;43.90;;;16.50;45.70;;;;;;5080975;28;20183;-81
2023/07/18 04:43:08;;;;;;;81.03;42.43;;;16.60;43.40;;;;;;5081518;28;20457;-82
2023/07/18 04:45:39;;;;;;;83.60;47.97;;;16.40;50.10;;;;;;5097930;28;20768;-82
2023/07/18 04:48:05;;;;;;;87.73;42.60;;;16.40;52.30;;;;;;5102432;28;20508;-82
2023/07/18 04:50:31;;;;;;;75.37;24.23;;;16.60;56.80;;;;;;5085094;28;20437;-82
2023/07/18 04:52:56;;;;;;;72.83;20.17;;;17.10;59.20;;;;;;5084967;28;20175;-81
2023/07/18 04:55:22;;;;;;;73.57;16.93;;;17.30;44.90;;;;;;5103629;28;20254;-82
2023/07/18 04:57:48;;;;;;;72.13;15.10;;;17.80;37.50;;;;;;5103922;28;20174;-82
2023/07/18 05:00:14;;;;;;;74.80;11.70;;;18.20;22.60;;;;;;5103913;28;20193;-82
2023/07/18 05:02:40;;;;;;;70.80;9.57;;;18.30;13.80;;;;;;5104133;28;20278;-82
2023/07/18 05:05:07;;;;;;;70.40;8.60;;;18.60;7.90;;;;;;5084831;28;20469;-82
2023/07/18 05:07:32;;;;;;;75.50;8.60;;;18.80;1.50;;;;;;5103677;28;20497;-82
2023/07/18 05:09:58;;;;;;;70.87;10.33;;;18.80;1.00;;;;;;5102321;28;20440;-82
2023/07/18 05:12:27;;;;;;;72.20;11.90;;;18.70;1.00;;;;;;5103371;28;20233;-86
2023/07/18 05:26:46;;;;;;;71.80;11.40;;;17.80;8.50;;;;;;4924874;22;20491;-85
2023/07/18 05:29:43;;;;;;;74.60;13.10;;;17.70;11.20;;;;;;5016665;28;20517;-83
2023/07/18 05:32:14;;;;;;;71.43;12.30;;;17.50;17.00;;;;;;5070417;28;20406;-82
2023/07/18 05:35:11;;;;;;;;;;;;;;;;;;;;;
2023/07/18 05:37:44;;;;;;;70.40;11.47;;;17.70;13.10;;;;;;5077189;28;20474;-83
2023/07/18 05:40:13;;;;;;;72.10;13.60;;;17.70;13.00;;;;;;5087007;28;20859;-83
2023/07/18 05:42:46;;;;;;;74.70;13.23;;;17.60;14.30;;;;;;5068457;28;20446;-84
2023/07/18 05:45:11;;;;;;;75.00;12.57;;;17.60;14.00;;;;;;5087408;28;20413;-83
2023/07/18 05:47:38;;;;;;;71.60;10.90;;;17.60;13.50;;;;;;5088361;28;20478;-84
2023/07/18 05:50:04;;;;;;;70.87;13.53;;;17.60;14.30;;;;;;5070797;28;20301;-84
2023/07/18 05:52:31;;;;;;;73.77;13.03;;;17.40;14.00;;;;;;5087960;28;20410;-83
2023/07/18 05:54:56;;;;;;;71.23;13.43;;;17.40;14.20;;;;;;5071279;28;20417;-84
2023/07/18 05:57:23;;;;;;;73.40;11.47;;;17.30;12.90;;;;;;5071212;28;20418;-80
2023/07/18 05:59:48;;;;;;;75.57;13.20;;;17.40;10.00;;;;;;5089003;28;20194;-83
2023/07/18 06:02:15;;;;;;;73.37;10.47;;;17.50;10.40;;;;;;5072817;28;20415;-83
2023/07/18 06:04:40;;;;;;;76.80;13.03;;;17.40;10.80;;;;;;5072428;28;20168;-83
2023/07/18 06:07:06;;;;;;;71.87;14.43;;;17.40;9.70;;;;;;5089607;28;20407;-82
2023/07/18 06:09:32;;;;;;;76.30;15.57;;;17.30;10.20;;;;;;5090420;28;20188;-83
2023/07/18 06:11:58;;;;;;;70.43;15.33;;;17.40;12.00;;;;;;5089551;28;20172;-82
2023/07/18 06:14:24;;;;;;;73.37;14.37;;;17.40;11.80;;;;;;5089077;28;20407;-82
2023/07/18 06:16:50;;;;;;;73.07;12.57;;;17.50;7.60;;;;;;5087855;28;20436;-82
2023/07/18 06:19:16;;;;;;;72.60;11.67;;;17.60;3.70;;;;;;5089673;28;20438;-82
2023/07/18 06:21:42;;;;;;;71.27;11.43;;;17.70;4.30;;;;;;5088934;28;20398;-82
2023/07/18 06:24:07;;;;;;;69.47;10.27;;;17.80;1.80;;;;;;5070950;28;20204;-82
2023/07/18 06:26:33;;;;;;;69.70;9.90;;;17.90;1.30;;;;;;5071241;28;20161;-82
2023/07/18 06:28:59;;;;;;;70.03;11.27;;;18.00;1.00;;;;;;5088758;28;20516;-82
2023/07/18 06:31:24;;;;;;;70.70;10.77;;;18.10;1.00;;;;;;5071010;28;20171;-83
2023/07/18 06:33:50;;;;;;;71.53;11.30;;;18.30;1.00;;;;;;5089587;28;20168;-82
2023/07/18 06:36:16;;;;;;;75.17;9.47;;;18.30;1.00;;;;;;5089981;28;20194;-84
2023/07/18 06:38:42;;;;;;;70.20;10.23;;;18.30;1.00;;;;;;5088735;28;20188;-84
2023/07/18 06:41:08;;;;;;;74.43;10.50;;;18.50;1.00;;;;;;5090355;28;20167;-83
2023/07/18 06:43:34;;;;;;;71.17;10.60;;;18.70;1.00;;;;;;5090041;28;20791;-83
2023/07/18 06:46:02;;;;;;;75.47;10.70;;;18.70;1.00;;;;;;5070689;28;20160;-83
2023/07/18 06:48:28;;;;;;;71.07;9.57;;;18.70;1.00;;;;;;5089647;28;20207;-83
2023/07/18 06:50:56;;;;;;;74.50;11.73;;;18.70;1.00;;;;;;5088810;28;20444;-83
2023/07/18 06:53:22;;;;;;;74.17;10.13;;;18.80;1.00;;;;;;5070935;28;20175;-82
2023/07/18 06:55:49;;;;;;;71.17;10.80;;;18.80;1.00;;;;;;5088393;28;20403;-83
2023/07/18 06:58:16;;;;;;;70.80;10.27;;;18.70;1.00;;;;;;5087477;28;20184;-82
2023/07/18 07:00:41;;;;;;;75.33;11.00;;;18.80;1.00;;;;;;5069501;28;20419;-82
2023/07/18 07:03:08;;;;;;;70.27;9.50;;;18.90;1.00;;;;;;5086088;28;20442;-81
2023/07/18 07:05:39;;;;;;;76.40;10.93;;;18.80;1.00;;;;;;5082472;28;20166;-82
2023/07/18 07:08:08;;;;;;;73.77;10.93;;;18.90;1.00;;;;;;5080515;28;20450;-82
2023/07/18 07:10:35;;;;;;;68.83;8.77;;;19.00;2.10;;;;;;5061516;28;20902;-84
2023/07/18 07:13:00;;;;;;;71.90;8.30;;;19.20;1.00;;;;;;5062229;28;20453;-83
2023/07/18 07:15:26;;;;;;;72.20;10.70;;;19.40;1.00;;;;;;5060398;28;20411;-81
2023/07/18 07:17:52;;;;;;;72.00;8.90;;;19.50;1.00;;;;;;5082387;28;20187;-81
2023/07/18 07:20:19;;;;;;;70.50;12.00;;;19.40;1.00;;;;;;5080732;28;20602;-82
2023/07/18 07:22:47;;;;;;;69.93;9.00;;;19.40;1.00;;;;;;5064038;28;20592;-80
2023/07/18 07:25:14;;;;;;;70.60;10.00;;;19.40;4.30;;;;;;5063448;28;20438;-81
2023/07/18 07:27:44;;;;;;;74.10;11.17;;;19.30;1.20;;;;;;5081378;28;20758;-81
2023/07/18 07:30:17;;;;;;;73.50;14.10;;;19.20;3.60;;;;;;5062080;28;20404;-81
2023/07/18 07:32:43;;;;;;;69.47;10.10;;;18.90;12.10;;;;;;5078823;28;20394;-80
2023/07/18 07:35:10;;;;;;;73.00;13.63;;;19.00;13.20;;;;;;5061466;28;20407;-81
2023/07/18 07:37:40;;;;;;;72.27;11.30;;;19.20;12.80;;;;;;5061206;28;20476;-81
2023/07/18 07:40:09;;;;;;;72.20;9.90;;;19.40;10.50;;;;;;5081405;28;20398;-81
2023/07/18 07:42:35;;;;;;;71.23;10.40;;;19.40;8.50;;;;;;5064150;28;20457;-80
2023/07/18 07:45:00;;;;;;;69.67;9.67;;;19.40;9.60;;;;;;5083152;28;20399;-80
2023/07/18 07:47:26;;;;;;;72.20;9.17;;;19.50;6.60;;;;;;5081141;28;20165;-80
2023/07/18 07:49:51;;;;;;;72.40;9.40;;;19.60;6.80;;;;;;5080166;28;20189;-81
2023/07/18 07:52:17;;;;;;;75.00;9.93;;;19.60;4.90;;;;;;5079695;28;20164;-80
2023/07/18 07:54:44;;;;;;;70.97;9.13;;;19.70;3.80;;;;;;5080664;28;20248;-80
2023/07/18 07:57:10;;;;;;;70.53;9.77;;;19.80;3.00;;;;;;5063501;28;20614;-81
2023/07/18 07:59:36;;;;;;;71.20;9.47;;;19.80;1.00;;;;;;5063907;28;20425;-80
2023/07/18 08:02:03;;;;;;;70.07;9.57;;;19.90;1.00;;;;;;5166010;22;20561;-78
2023/07/18 08:04:28;;;;;;;71.83;10.40;;;20.10;1.00;;;;;;5115850;28;20480;-78
2023/07/18 08:06:55;;;;;;;70.30;8.60;;;20.20;1.00;;;;;;5097549;28;20410;-78
2023/07/18 08:09:22;;;;;;;74.50;10.03;;;20.40;1.00;;;;;;5081867;28;20554;-78
2023/07/18 08:11:48;;;;;;;70.60;8.30;;;20.40;1.00;;;;;;5095689;28;20402;-78
2023/07/18 08:14:14;;;;;;;70.27;8.77;;;20.60;1.00;;;;;;5095059;28;20426;-78
2023/07/18 08:16:40;;;;;;;71.07;6.37;;;20.80;1.00;;;;;;5095693;28;20494;-78
2023/07/18 08:19:07;;;;;;;68.70;4.97;;;20.80;1.00;;;;;;5076898;28;20437;-77
2023/07/18 08:21:33;;;;;;;70.90;5.10;;;20.80;1.00;;;;;;5077384;28;20419;-78
2023/07/18 08:23:59;;;;;;;68.23;4.50;;;20.80;1.00;;;;;;5098787;28;20465;-78
2023/07/18 08:26:25;;;;;;;70.10;4.43;;;20.80;1.00;;;;;;5080997;28;20420;-78
2023/07/18 08:28:51;;;;;;;69.83;4.67;;;20.80;1.00;;;;;;5081265;28;20431;-78
2023/07/18 08:31:16;;;;;;;68.87;4.00;;;21.00;1.00;;;;;;5099087;28;20175;-78
2023/07/18 08:33:42;;;;;;;68.40;4.20;;;21.10;1.00;;;;;;5099137;28;20209;-78
2023/07/18 08:36:11;;;;;;;73.20;4.30;;;21.20;1.00;;;;;;5099613;28;20164;-78
2023/07/18 08:38:37;;;;;;;71.53;4.50;;;21.20;1.00;;;;;;5081016;28;20275;-78
2023/07/18 08:41:03;;;;;;;68.17;4.00;;;21.30;1.00;;;;;;5099251;28;20428;-78
2023/07/18 08:43:31;;;;;;;69.00;3.67;;;21.20;1.00;;;;;;5080689;28;20467;-78
2023/07/18 08:45:57;;;;;;;73.27;4.37;;;21.40;1.00;;;;;;5081941;28;20404;-78
2023/07/18 08:48:23;;;;;;;67.77;3.83;;;21.70;1.00;;;;;;5098826;28;20412;-78
2023/07/18 08:50:52;;;;;;;71.70;3.63;;;22.10;1.00;;;;;;5098780;28;20393;-78
2023/07/18 08:53:18;;;;;;;68.00;3.47;;;22.30;1.00;;;;;;5099050;28;20401;-78
2023/07/18 08:55:44;;;;;;;68.93;3.53;;;22.50;1.00;;;;;;5080525;28;20982;-78
2023/07/18 08:58:10;;;;;;;68.10;2.80;;;22.50;1.00;;;;;;5098439;28;20209;-78
2023/07/18 09:00:35;;;;;;;68.40;3.93;;;22.40;1.00;;;;;;5099061;28;20398;-78
2023/07/18 09:03:01;;;;;;;69.07;3.20;;;22.30;1.00;;;;;;5098511;28;20282;-78
2023/07/18 09:05:34;;;;;;;70.60;3.20;;;22.30;1.00;;;;;;5098490;28;20160;-78
2023/07/18 09:08:02;;;;;;;69.30;3.87;;;22.60;1.00;;;;;;5098313;28;20183;-78
2023/07/18 09:10:28;;;;;;;69.07;3.30;;;22.70;1.00;;;;;;5098343;28;20390;-78
2023/07/18 09:12:54;;;;;;;67.40;2.80;;;22.90;1.00;;;;;;5098743;28;20393;-79
2023/07/18 09:15:21;;;;;;;67.50;2.70;;;23.10;1.00;;;;;;5097891;28;20523;-78
2023/07/18 09:17:57;;;;;;;67.00;2.90;;;23.20;1.00;;;;;;5097885;28;20402;-78
2023/07/18 09:20:27;;;;;;;69.57;3.60;;;23.30;1.00;;;;;;5097994;28;20530;-78
2023/07/18 09:23:02;;;;;;;68.87;3.57;;;23.40;1.00;;;;;;5097866;28;20528;-78
2023/07/18 09:25:28;;;;;;;68.73;3.20;;;23.60;1.00;;;;;;5097843;28;20394;-78
2023/07/18 09:27:55;;;;;;;70.57;3.03;;;23.70;1.00;;;;;;5098172;28;20423;-78
2023/07/18 09:30:31;;;;;;;69.70;3.17;;;23.70;1.00;;;;;;5098074;28;20500;-78
2023/07/18 09:32:57;;;;;;;69.00;3.10;;;23.80;1.00;;;;;;5097744;28;20382;-78
2023/07/18 09:35:27;;;;;;;69.80;3.70;;;23.80;1.00;;;;;;5097638;28;20458;-78
2023/07/18 09:37:53;;;;;;;69.40;3.70;;;23.90;1.00;;;;;;5079641;28;20196;-78
2023/07/18 09:40:19;;;;;;;71.87;3.17;;;23.90;1.00;;;;;;5097699;28;20405;-78
2023/07/18 09:42:46;;;;;;;72.07;3.57;;;23.80;1.00;;;;;;5097332;28;20211;-78
2023/07/18 09:45:16;;;;;;;69.37;3.80;;;23.80;1.00;;;;;;5097935;28;20393;-78
2023/07/18 09:47:43;;;;;;;70.70;3.43;;;24.00;1.00;;;;;;5097525;28;20427;-78
2023/07/18 09:50:09;;;;;;;67.73;3.00;;;24.00;1.00;;;;;;5098364;28;21018;-77
2023/07/18 09:52:41;;;;;;;69.70;3.70;;;24.20;1.00;;;;;;5096649;28;20912;-78
2023/07/18 09:55:10;;;;;;;72.53;3.60;;;24.20;1.00;;;;;;5097911;28;20869;-78
2023/07/18 09:57:39;;;;;;;76.73;3.97;;;24.20;1.00;;;;;;5096623;28;20431;-78
2023/07/18 10:00:05;;;;;;;73.07;3.50;;;24.40;1.00;;;;;;5097058;28;20832;-78
2023/07/18 10:02:34;;;;;;;70.13;4.20;;;24.90;1.00;;;;;;5078100;28;20432;-78
2023/07/18 10:05:02;;;;;;;73.00;5.17;;;25.00;1.00;;;;;;5078549;28;20415;-78
2023/07/18 10:07:30;;;;;;;69.07;3.03;;;25.20;1.00;;;;;;5096911;28;20479;-78
2023/07/18 10:09:56;;;;;;;74.70;3.53;;;25.40;1.00;;;;;;5096425;28;20403;-78
2023/07/18 10:12:22;;;;;;;70.90;3.30;;;25.50;1.00;;;;;;5097501;28;20495;-78
2023/07/18 10:14:50;;;;;;;68.00;3.20;;;25.40;1.00;;;;;;5097292;28;20853;-78
2023/07/18 10:17:35;;;;;;;68.80;3.10;;;25.30;1.00;;;;;;5097106;28;20560;-78
2023/07/18 10:20:10;;;;;;;68.67;4.07;;;25.10;1.00;;;;;;5078781;28;20460;-78
2023/07/18 10:22:35;;;;;;;70.10;4.00;;;24.80;1.00;;;;;;5079069;28;20529;-78
2023/07/18 10:25:06;;;;;;;68.80;3.93;;;24.70;1.00;;;;;;5096783;28;20931;-78
2023/07/18 10:27:40;;;;;;;69.80;3.47;;;24.70;1.00;;;;;;5096730;28;20157;-78
2023/07/18 10:30:07;;;;;;;71.17;4.47;;;24.70;1.00;;;;;;5078550;28;20414;-78
2023/07/18 10:32:35;;;;;;;70.97;3.97;;;25.00;1.00;;;;;;5078121;28;20435;-78
2023/07/18 10:35:06;;;;;;;69.60;3.73;;;25.20;1.00;;;;;;5097074;28;20477;-78
2023/07/18 10:37:32;;;;;;;68.60;3.40;;;25.30;1.00;;;;;;5097159;28;20754;-78
2023/07/18 10:39:59;;;;;;;68.07;3.70;;;25.30;1.00;;;;;;5096375;28;20411;-78
2023/07/18 10:42:32;;;;;;;69.60;3.57;;;25.30;1.00;;;;;;5078251;28;20408;-78
2023/07/18 10:45:07;;;;;;;69.47;3.50;;;25.00;1.00;;;;;;5096341;28;20384;-78
2023/07/18 10:47:36;;;;;;;71.30;3.53;;;24.90;1.00;;;;;;5096397;28;20395;-78
2023/07/18 10:50:03;;;;;;;68.57;3.50;;;24.90;1.00;;;;;;5096439;28;20480;-78
2023/07/18 10:52:29;;;;;;;72.20;4.10;;;25.00;1.00;;;;;;5096214;28;20495;-78
2023/07/18 10:54:59;;;;;;;71.03;3.67;;;25.50;1.00;;;;;;5096024;28;20404;-78
2023/07/18 10:57:33;;;;;;;67.87;3.13;;;25.90;1.00;;;;;;5077752;28;20954;-78
2023/07/18 11:00:00;;;;;;;67.67;3.47;;;26.40;1.00;;;;;;5096415;28;20471;-78
2023/07/18 11:02:27;;;;;;;71.70;4.20;;;26.90;1.00;;;;;;5096383;28;20428;-78
2023/07/18 11:04:53;;;;;;;69.77;4.13;;;26.90;1.00;;;;;;5096453;28;20397;-78
2023/07/18 11:07:42;;;;;;;68.60;4.23;;;26.90;1.00;;;;;;5078102;28;20463;-78
2023/07/18 11:10:12;;;;;;;69.07;4.50;;;27.40;1.00;;;;;;5095796;28;20457;-78
2023/07/18 11:12:39;;;;;;;69.27;5.23;;;27.70;1.00;;;;;;5096370;28;20394;-78
2023/07/18 11:15:07;;;;;;;71.40;5.33;;;27.70;1.00;;;;;;5096880;28;20923;-78
2023/07/18 11:17:33;;;;;;;69.07;5.13;;;27.40;1.00;;;;;;5095996;28;20393;-78
2023/07/18 11:19:59;;;;;;;71.90;5.43;;;27.20;1.00;;;;;;5077881;28;20413;-78
2023/07/18 11:22:25;;;;;;;73.87;5.17;;;26.80;1.00;;;;;;5095900;28;20398;-78
2023/07/18 11:24:51;;;;;;;70.30;5.00;;;26.60;1.00;;;;;;5096549;28;20254;-78
2023/07/18 11:27:22;;;;;;;68.37;4.67;;;26.60;1.00;;;;;;5096405;28;20923;-78
2023/07/18 11:29:57;;;;;;;68.43;4.83;;;26.60;1.00;;;;;;5097004;28;20506;-78
2023/07/18 11:32:35;;;;;;;69.77;5.10;;;26.80;1.00;;;;;;5095731;28;20486;-78
2023/07/18 11:35:01;;;;;;;69.03;4.83;;;26.90;1.00;;;;;;5096637;28;20397;-78
2023/07/18 11:37:27;;;;;;;72.97;5.50;;;26.80;1.00;;;;;;5077921;28;20405;-78
2023/07/18 11:39:55;;;;;;;80.10;4.83;;;26.70;1.00;;;;;;5096265;28;20421;-78
2023/07/18 11:42:21;;;;;;;73.80;4.60;;;26.50;1.00;;;;;;5095646;28;20165;-78
2023/07/18 11:44:48;;;;;;;70.97;4.13;;;26.20;1.00;;;;;;5095479;28;20472;-78
2023/07/18 11:47:15;;;;;;;68.90;3.97;;;26.10;1.00;;;;;;5077152;28;20405;-78
2023/07/18 11:49:44;;;;;;;71.93;4.00;;;26.00;1.00;;;;;;5095444;28;20447;-78
2023/07/18 11:52:11;;;;;;;67.97;3.93;;;25.90;1.00;;;;;;5095795;28;20765;-78
2023/07/18 11:54:37;;;;;;;68.30;3.40;;;26.00;1.00;;;;;;5095866;28;20444;-78
2023/07/18 11:57:03;;;;;;;69.60;4.30;;;26.30;1.00;;;;;;5098851;28;20409;-78
2023/07/18 11:59:30;;;;;;;70.10;5.67;;;26.30;1.00;;;;;;5099999;28;20538;-78
2023/07/18 12:01:56;;;;;;;69.60;5.10;;;26.70;1.00;;;;;;5099428;28;20788;-78
2023/07/18 12:04:21;;;;;;;71.33;5.53;;;26.80;1.00;;;;;;5099303;28;20448;-78
2023/07/18 12:06:47;;;;;;;69.77;5.40;;;26.70;1.00;;;;;;5099806;28;20672;-78
2023/07/18 12:09:13;;;;;;;71.47;5.17;;;27.10;1.00;;;;;;5081629;28;20274;-78
2023/07/18 12:11:39;;;;;;;69.00;4.47;;;26.70;1.00;;;;;;5099150;28;20230;-78
2023/07/18 12:14:07;;;;;;;69.37;4.20;;;26.20;1.00;;;;;;5099415;28;20499;-78
2023/07/18 12:16:33;;;;;;;68.67;3.93;;;25.90;1.00;;;;;;5099253;28;20738;-78
2023/07/18 12:18:58;;;;;;;68.20;4.20;;;25.70;1.00;;;;;;5099099;28;20482;-79
2023/07/18 12:21:24;;;;;;;71.30;5.00;;;25.50;1.00;;;;;;5100427;28;20166;-79
2023/07/18 12:23:50;;;;;;;74.37;5.23;;;26.10;1.00;;;;;;5100079;28;20519;-79
2023/07/18 12:26:15;;;;;;;71.23;5.70;;;26.70;1.00;;;;;;5100158;28;20634;-78
2023/07/18 12:28:43;;;;;;;69.27;5.67;;;27.40;1.00;;;;;;5099714;28;20188;-78
2023/07/18 12:31:10;;;;;;;69.30;5.47;;;27.50;1.00;;;;;;5081705;28;20213;-78
2023/07/18 12:33:38;;;;;;;69.90;6.07;;;27.60;1.00;;;;;;5099834;28;20408;-77
2023/07/18 12:36:04;;;;;;;70.47;7.70;;;27.90;1.00;;;;;;5099135;28;20413;-78
2023/07/18 12:38:30;;;;;;;71.70;7.53;;;28.10;1.00;;;;;;5099038;28;20425;-78
2023/07/18 12:40:56;;;;;;;69.00;7.00;;;27.90;1.00;;;;;;5081083;28;20413;-78
2023/07/18 12:43:22;;;;;;;70.30;6.80;;;27.50;1.00;;;;;;5098933;28;20183;-78
2023/07/18 12:45:47;;;;;;;72.60;7.60;;;27.20;1.00;;;;;;5099008;28;20167;-78
2023/07/18 12:48:13;;;;;;;72.37;6.73;;;27.20;1.00;;;;;;5099423;28;20180;-78
2023/07/18 12:50:38;;;;;;;69.57;6.10;;;27.00;1.00;;;;;;5099392;28;20168;-79